Southeast Texas Regional Airport Beaumont,Port Arthur US
ICAO: KBPT
IATA: BPT
Category: Medium
Scheduled Services: Yes

Elevation: 15 ft
TransAlt. 18000 ft.

Airport Communications:
BEAUMONT APP/DEP:121.3
ATIS:126.3
CLNC DEL:118.3
CTAF:119.5
GND:121.9
MONTGOMERY CO RDO:122.2
BEAUMONT TWR:119.5
UNICOM:122.95

KBPT Zoom In..

Runways:

(A) RW 12 length 6750 ft width 150 ft
ILS 110.15 / hdg 116

(B) RW 16 length 5070 ft width 150 ft
---- / hdg 161

(C) RW 30 length 6750 ft width 150 ft
---- / hdg 296

(D) RW 34 length 5070 ft width 150 ft
---- / hdg 341

Location; KBPT
Day. 03 / Time. 10.53 Zulu
* Altimeter: 29.97
* Temperature: 23° c. 73.4°f.
* Wind from: 280° Speed 03 kn.
Dewpoint: 23° c.
Visibility: 8 Statute Miles.
Clouds: Clear (automated report).

KBPT 031053Z 28003KT 8SM CLR 23/23 A2997 RMK AO2 SLP150 T02330228

Going to: --> -->


Wind From 280°
Speed 03 kn.

 
 
jpsmedia worldairports.se 2020   terms of use